Time;durP1;ratioP1;P1;durP2;ratioP2;P2;SDS_P1;SDS_P2;PMS_P1;PMS_P2;Temp;Humidity;BMP_temperature;BMP_pressure;BME280_temperature;BME280_humidity;BME280_pressure;Samples;Min_cycle;Max_cycle;Signal;HPM_P1;HPM_P2
2023/06/03 00:00:58;;;;;;;2.77;1.70;;;23.00;58.40;;;;;;5036656;28;20195;-44
2023/06/03 00:03:32;;;;;;;2.77;1.70;;;23.00;58.40;;;;;;5035477;28;20211;-44
2023/06/03 00:06:15;;;;;;;3.43;1.70;;;23.00;58.30;;;;;;5032273;28;20202;-44
2023/06/03 00:08:45;;;;;;;3.60;1.83;;;23.00;58.30;;;;;;5015439;28;20245;-44
2023/06/03 00:11:17;;;;;;;3.00;2.20;;;22.90;58.20;;;;;;5035772;28;20229;-44
2023/06/03 00:13:48;;;;;;;4.20;2.13;;;22.90;58.00;;;;;;5048807;28;20198;-44
2023/06/03 00:16:19;;;;;;;2.17;1.90;;;22.90;58.00;;;;;;5039372;28;20203;-44
2023/06/03 00:18:47;;;;;;;2.40;1.93;;;22.90;58.00;;;;;;5036195;28;20194;-43
2023/06/03 00:21:17;;;;;;;2.60;1.80;;;22.90;58.00;;;;;;5048986;28;20214;-44
2023/06/03 00:23:49;;;;;;;2.97;1.70;;;22.90;57.80;;;;;;5045102;28;20281;-44
2023/06/03 00:26:22;;;;;;;2.10;1.73;;;22.90;57.80;;;;;;5040747;28;20199;-44
2023/06/03 00:28:50;;;;;;;2.43;1.77;;;22.80;57.70;;;;;;5022052;28;20548;-43
2023/06/03 00:31:20;;;;;;;3.60;2.00;;;22.90;57.70;;;;;;5040803;28;20273;-43
2023/06/03 00:33:50;;;;;;;2.37;1.80;;;22.80;57.70;;;;;;5034646;28;20203;-43
2023/06/03 00:36:21;;;;;;;4.63;1.83;;;22.80;57.70;;;;;;5037666;28;20193;-43
2023/06/03 00:38:50;;;;;;;3.07;2.10;;;22.80;57.50;;;;;;5040401;28;20583;-44
2023/06/03 00:41:21;;;;;;;2.77;2.20;;;22.80;57.60;;;;;;5064695;28;20245;-44
2023/06/03 00:43:50;;;;;;;3.13;2.20;;;22.80;57.60;;;;;;5066992;28;20198;-44
2023/06/03 00:46:37;;;;;;;3.23;1.90;;;22.80;57.40;;;;;;5052953;28;20293;-44
2023/06/03 00:49:10;;;;;;;1.90;1.70;;;22.80;57.40;;;;;;5048074;28;20197;-43
2023/06/03 00:51:42;;;;;;;2.37;1.87;;;22.80;57.40;;;;;;5055900;28;20229;-43
2023/06/03 00:54:12;;;;;;;2.77;2.07;;;22.70;57.20;;;;;;5030190;28;20194;-44
2023/06/03 00:56:44;;;;;;;2.50;1.77;;;22.80;57.20;;;;;;5048314;28;20211;-44
2023/06/03 00:59:16;;;;;;;2.60;1.83;;;22.80;57.20;;;;;;5053725;28;20198;-43
2023/06/03 01:01:47;;;;;;;2.63;1.83;;;22.70;57.10;;;;;;5037145;28;20213;-43
2023/06/03 01:04:25;;;;;;;3.10;2.10;;;22.70;57.00;;;;;;5054327;28;20252;-43
2023/06/03 01:07:14;;;;;;;2.20;1.60;;;22.70;57.00;;;;;;5062396;28;20200;-45
2023/06/03 01:10:17;;;;;;;4.60;2.30;;;22.70;57.00;;;;;;5065989;28;20284;-45
2023/06/03 01:13:35;;;;;;;2.30;1.83;;;22.70;56.90;;;;;;5050213;28;20212;-44
2023/06/03 01:16:08;;;;;;;2.73;1.67;;;22.70;57.50;;;;;;5054272;28;20212;-44
2023/06/03 01:18:53;;;;;;;2.30;1.63;;;22.60;56.80;;;;;;5050541;28;20693;-43
2023/06/03 01:21:34;;;;;;;3.77;1.57;;;22.60;56.70;;;;;;5049908;28;20228;-43
2023/06/03 01:24:07;;;;;;;2.50;1.97;;;22.60;56.80;;;;;;5053240;28;20607;-43
2023/06/03 01:26:37;;;;;;;2.63;2.30;;;22.60;56.60;;;;;;5060411;28;20643;-44
2023/06/03 01:29:07;;;;;;;2.93;2.03;;;22.60;56.60;;;;;;5055577;28;20186;-44
2023/06/03 01:31:41;;;;;;;2.50;1.70;;;22.60;56.50;;;;;;5063204;28;20210;-44
2023/06/03 01:34:12;;;;;;;3.20;1.93;;;22.60;56.50;;;;;;5045013;28;20215;-44
2023/06/03 01:36:42;;;;;;;1.63;1.43;;;22.60;56.40;;;;;;5054164;28;20616;-43
2023/06/03 01:39:18;;;;;;;2.83;1.87;;;22.60;56.40;;;;;;5067864;28;20213;-44
2023/06/03 01:41:49;;;;;;;2.23;1.83;;;22.60;56.30;;;;;;5050822;28;20243;-44
2023/06/03 01:44:17;;;;;;;2.07;1.73;;;22.60;56.30;;;;;;5030139;28;20221;-44
2023/06/03 01:46:46;;;;;;;2.13;1.73;;;22.60;56.20;;;;;;5058500;28;20216;-43
2023/06/03 01:49:17;;;;;;;1.97;1.80;;;22.60;56.20;;;;;;5039267;28;20194;-44
2023/06/03 01:51:48;;;;;;;2.83;1.70;;;22.50;56.10;;;;;;5066550;28;20757;-43
2023/06/03 01:54:19;;;;;;;1.90;1.73;;;22.60;56.20;;;;;;5056445;28;20620;-44
2023/06/03 01:56:56;;;;;;;3.37;1.87;;;22.50;56.10;;;;;;5062876;28;20281;-43
2023/06/03 01:59:27;;;;;;;2.73;1.80;;;22.50;56.00;;;;;;5056936;28;20228;-44
2023/06/03 02:01:59;;;;;;;3.40;1.93;;;22.50;56.00;;;;;;5057624;28;20194;-44
2023/06/03 02:04:31;;;;;;;1.60;1.50;;;22.60;56.00;;;;;;5023926;28;20628;-44
2023/06/03 02:07:00;;;;;;;2.63;1.93;;;22.50;56.00;;;;;;5059750;28;20194;-43
2023/06/03 02:09:31;;;;;;;2.17;1.90;;;22.50;56.00;;;;;;5067339;28;20225;-43
2023/06/03 02:12:00;;;;;;;4.47;2.23;;;22.50;56.00;;;;;;5045154;28;20226;-44
2023/06/03 02:14:32;;;;;;;2.33;1.80;;;22.50;55.90;;;;;;5040217;28;20201;-43
2023/06/03 02:17:03;;;;;;;2.70;1.73;;;22.50;55.90;;;;;;5048350;28;20213;-43
2023/06/03 02:19:34;;;;;;;3.83;2.07;;;22.50;55.90;;;;;;5056087;28;20207;-44
2023/06/03 02:22:05;;;;;;;2.20;1.97;;;22.50;55.90;;;;;;5051718;28;20214;-43
2023/06/03 02:24:38;;;;;;;2.53;1.90;;;22.50;55.90;;;;;;5053323;28;20198;-43
2023/06/03 02:27:10;;;;;;;2.63;1.73;;;22.40;55.80;;;;;;5060104;28;20616;-43
2023/06/03 02:29:50;;;;;;;2.70;1.80;;;22.40;55.80;;;;;;5059426;28;20194;-44
2023/06/03 02:32:19;;;;;;;2.67;1.70;;;22.40;55.80;;;;;;5041846;28;20592;-44
2023/06/03 02:34:50;;;;;;;3.23;1.70;;;22.40;55.80;;;;;;5038713;28;20608;-44
2023/06/03 02:37:22;;;;;;;2.73;1.73;;;22.40;55.80;;;;;;5066134;28;20518;-45
2023/06/03 02:39:53;;;;;;;1.60;1.50;;;22.40;55.80;;;;;;5054561;28;20232;-45
2023/06/03 02:42:24;;;;;;;3.07;1.87;;;22.40;55.80;;;;;;5056418;28;20205;-45
2023/06/03 02:44:51;;;;;;;3.07;2.00;;;22.40;55.70;;;;;;5064935;28;20228;-45
2023/06/03 02:47:22;;;;;;;2.10;1.80;;;22.40;55.70;;;;;;5053292;28;20198;-44
2023/06/03 02:49:55;;;;;;;3.03;1.80;;;22.40;55.70;;;;;;5053826;28;20198;-44
2023/06/03 02:52:25;;;;;;;2.23;1.83;;;22.40;55.70;;;;;;5059264;28;20680;-44
2023/06/03 02:54:52;;;;;;;3.07;2.00;;;22.40;55.70;;;;;;5062347;28;20232;-45
2023/06/03 02:57:22;;;;;;;2.13;1.80;;;22.30;55.60;;;;;;5029072;28;20218;-44
2023/06/03 02:59:55;;;;;;;3.37;1.90;;;22.40;55.60;;;;;;5056612;28;20199;-45
2023/06/03 03:02:26;;;;;;;3.07;1.57;;;22.30;55.60;;;;;;5045425;28;20207;-44
2023/06/03 03:04:58;;;;;;;3.33;2.00;;;22.30;55.60;;;;;;5058442;28;20189;-44
2023/06/03 03:07:32;;;;;;;2.80;1.80;;;22.30;55.60;;;;;;5057034;28;20213;-44
2023/06/03 03:10:04;;;;;;;2.67;1.70;;;22.30;55.60;;;;;;5042789;28;20221;-44
2023/06/03 03:12:36;;;;;;;2.30;1.80;;;22.30;55.60;;;;;;5059965;28;20267;-44
2023/06/03 03:15:07;;;;;;;2.20;1.80;;;22.30;55.50;;;;;;5068192;28;20248;-44
2023/06/03 03:17:39;;;;;;;2.67;2.13;;;22.30;55.50;;;;;;5059656;28;20197;-44
2023/06/03 03:20:12;;;;;;;3.17;2.13;;;22.30;55.50;;;;;;5060716;28;20233;-44
2023/06/03 03:22:44;;;;;;;2.50;1.73;;;22.30;55.50;;;;;;5057067;28;20899;-44
2023/06/03 03:25:14;;;;;;;2.60;1.93;;;22.30;55.50;;;;;;5037566;28;20194;-44
2023/06/03 03:27:49;;;;;;;1.40;1.30;;;22.30;55.50;;;;;;5057125;28;20212;-44
2023/06/03 03:30:19;;;;;;;1.70;1.60;;;22.20;55.40;;;;;;5065263;28;20627;-44
2023/06/03 03:32:49;;;;;;;2.87;2.00;;;22.30;55.40;;;;;;5057114;28;20208;-45
2023/06/03 03:35:22;;;;;;;2.30;1.60;;;22.30;55.40;;;;;;5040777;28;20252;-44
2023/06/03 03:38:08;;;;;;;2.33;1.60;;;22.30;55.40;;;;;;5057289;28;20186;-45
2023/06/03 03:40:44;;;;;;;2.37;1.60;;;22.30;55.40;;;;;;5063781;28;20249;-45
2023/06/03 03:43:19;;;;;;;2.77;1.77;;;22.20;55.30;;;;;;5060162;28;20670;-45
2023/06/03 03:45:50;;;;;;;2.37;2.03;;;22.30;56.00;;;;;;5066496;28;20232;-45
2023/06/03 03:48:25;;;;;;;2.47;1.90;;;22.30;55.40;;;;;;5067780;28;20197;-45
2023/06/03 03:51:08;;;;;;;2.40;1.50;;;22.20;55.30;;;;;;5063963;28;20628;-44
2023/06/03 03:53:43;;;;;;;1.93;1.60;;;22.20;55.30;;;;;;5056911;28;20190;-44
2023/06/03 03:56:20;;;;;;;1.77;1.67;;;22.20;55.20;;;;;;5070536;28;20262;-44
2023/06/03 03:58:48;;;;;;;3.03;1.97;;;22.20;55.20;;;;;;5050257;28;20209;-45
2023/06/03 04:01:22;;;;;;;2.40;1.77;;;22.20;55.20;;;;;;5042979;28;20520;-45
2023/06/03 04:03:59;;;;;;;2.60;1.90;;;22.20;55.20;;;;;;5066028;28;20205;-45
2023/06/03 04:06:38;;;;;;;2.13;1.73;;;22.20;55.20;;;;;;5053972;28;20202;-45
2023/06/03 04:09:10;;;;;;;1.87;1.67;;;22.20;55.10;;;;;;5065003;28;20217;-44
2023/06/03 04:11:44;;;;;;;3.47;1.70;;;22.20;55.10;;;;;;5062176;28;20275;-44
2023/06/03 04:14:16;;;;;;;2.17;1.60;;;22.20;55.10;;;;;;5064636;28;20252;-44
2023/06/03 04:17:00;;;;;;;1.83;1.67;;;22.20;55.10;;;;;;5061710;28;20200;-44
2023/06/03 04:19:41;;;;;;;2.40;1.50;;;22.20;55.10;;;;;;5058611;28;20197;-44
2023/06/03 04:22:24;;;;;;;4.00;1.87;;;22.20;55.10;;;;;;5065023;28;20205;-44
2023/06/03 04:25:08;;;;;;;2.37;1.73;;;22.10;55.00;;;;;;5048082;28;20198;-44
2023/06/03 04:27:44;;;;;;;5.07;1.70;;;22.20;55.00;;;;;;5069954;28;20201;-44
2023/06/03 04:30:15;;;;;;;2.43;1.60;;;22.20;55.00;;;;;;5067051;28;20198;-44
2023/06/03 04:32:45;;;;;;;1.47;1.37;;;22.20;55.00;;;;;;5066384;28;20225;-44
2023/06/03 04:35:14;;;;;;;2.07;1.50;;;22.10;54.90;;;;;;5066324;28;20588;-45
2023/06/03 04:37:48;;;;;;;2.60;1.67;;;22.20;55.00;;;;;;5051966;28;20230;-44
2023/06/03 04:40:17;;;;;;;1.97;1.50;;;22.10;54.90;;;;;;5053875;28;20241;-44
2023/06/03 04:42:50;;;;;;;2.20;1.70;;;22.10;54.90;;;;;;5047930;28;20190;-44
2023/06/03 04:45:23;;;;;;;2.77;1.60;;;22.10;54.90;;;;;;5046977;28;20289;-44
2023/06/03 04:47:58;;;;;;;2.10;1.80;;;22.10;54.80;;;;;;5030003;28;20240;-44
2023/06/03 04:50:35;;;;;;;1.97;1.53;;;22.10;54.80;;;;;;5045611;28;20206;-44
2023/06/03 04:53:04;;;;;;;2.87;1.73;;;22.10;54.90;;;;;;5039853;28;20222;-44
2023/06/03 04:55:34;;;;;;;1.70;1.60;;;22.10;54.90;;;;;;5041274;28;20262;-45
2023/06/03 04:58:05;;;;;;;2.47;1.70;;;22.10;54.90;;;;;;5046458;28;20211;-44
2023/06/03 05:00:34;;;;;;;1.70;1.50;;;22.10;54.90;;;;;;5047753;28;20660;-44
2023/06/03 05:03:08;;;;;;;2.43;1.57;;;22.10;54.80;;;;;;5040274;28;20237;-44
2023/06/03 05:05:43;;;;;;;4.30;1.53;;;22.10;54.80;;;;;;5048908;28;20205;-44
2023/06/03 05:08:13;;;;;;;3.10;1.47;;;22.10;54.80;;;;;;5039277;28;20195;-44
2023/06/03 05:10:46;;;;;;;2.20;1.50;;;22.10;54.80;;;;;;5037910;28;20199;-43
2023/06/03 05:13:18;;;;;;;4.07;1.70;;;22.10;54.70;;;;;;5047203;28;20202;-43
2023/06/03 05:15:48;;;;;;;2.00;1.60;;;22.10;54.70;;;;;;5042866;28;20497;-44
2023/06/03 05:18:16;;;;;;;2.23;1.20;;;22.10;54.70;;;;;;5039646;28;20234;-44
2023/06/03 05:20:46;;;;;;;1.87;1.73;;;22.10;54.70;;;;;;5041352;28;21931;-45
2023/06/03 05:23:15;;;;;;;1.73;1.57;;;22.10;54.70;;;;;;5046649;28;20212;-45
2023/06/03 05:25:45;;;;;;;1.83;1.50;;;22.00;54.60;;;;;;5044445;28;20245;-44
2023/06/03 05:28:13;;;;;;;2.60;1.63;;;22.10;54.50;;;;;;5015106;28;20590;-43
2023/06/03 05:30:43;;;;;;;3.03;1.97;;;22.10;54.50;;;;;;5043633;28;20194;-44
2023/06/03 05:33:31;;;;;;;2.67;1.93;;;22.10;54.50;;;;;;5036742;28;20312;-45
2023/06/03 05:35:59;;;;;;;2.83;1.77;;;22.00;54.40;;;;;;5031097;28;20199;-44
2023/06/03 05:38:31;;;;;;;3.87;1.57;;;22.10;54.40;;;;;;5040940;28;20210;-44
2023/06/03 05:40:59;;;;;;;2.17;1.77;;;22.10;54.40;;;;;;5046955;28;20666;-44
2023/06/03 05:43:29;;;;;;;2.27;1.70;;;22.10;54.40;;;;;;5065635;28;20197;-44
2023/06/03 05:45:58;;;;;;;2.53;1.90;;;22.00;54.30;;;;;;5065668;28;20221;-44
2023/06/03 05:48:30;;;;;;;2.80;1.50;;;22.00;54.30;;;;;;5069164;28;20241;-44
2023/06/03 05:51:05;;;;;;;6.80;1.80;;;22.10;54.30;;;;;;5063236;28;20283;-45
2023/06/03 05:53:43;;;;;;;2.10;1.70;;;22.10;54.30;;;;;;5065110;28;20206;-44
2023/06/03 05:56:13;;;;;;;3.97;1.73;;;22.00;54.30;;;;;;5055093;28;20205;-44
2023/06/03 05:58:47;;;;;;;2.77;1.40;;;22.10;54.30;;;;;;5063039;28;20667;-44
2023/06/03 06:01:19;;;;;;;2.10;1.57;;;22.00;54.10;;;;;;5056906;28;20202;-45
2023/06/03 06:03:51;;;;;;;2.10;1.60;;;22.00;54.20;;;;;;5060867;28;20206;-44
2023/06/03 06:06:24;;;;;;;2.83;1.90;;;22.00;54.20;;;;;;5050201;28;20573;-44
2023/06/03 06:08:53;;;;;;;2.50;1.73;;;22.00;54.10;;;;;;5026749;28;20297;-44
2023/06/03 06:11:27;;;;;;;2.10;1.90;;;22.00;54.10;;;;;;5052916;28;20214;-44
2023/06/03 06:13:55;;;;;;;2.33;1.60;;;22.00;54.00;;;;;;5054785;28;20182;-44
2023/06/03 06:16:24;;;;;;;2.23;1.60;;;22.10;54.10;;;;;;5060237;28;20312;-44
2023/06/03 06:18:57;;;;;;;1.50;1.40;;;22.00;54.00;;;;;;5053983;28;20198;-44
2023/06/03 06:21:30;;;;;;;3.47;1.93;;;22.00;53.90;;;;;;5032434;28;20221;-44
2023/06/03 06:24:01;;;;;;;2.57;1.83;;;22.00;53.90;;;;;;5050968;28;20211;-44
2023/06/03 06:26:29;;;;;;;5.17;2.07;;;22.00;53.90;;;;;;5063248;28;20202;-44
2023/06/03 06:29:02;;;;;;;3.47;2.07;;;22.00;53.90;;;;;;5064009;28;20201;-44
2023/06/03 06:31:32;;;;;;;4.53;2.17;;;22.00;54.80;;;;;;5068566;28;20260;-44
2023/06/03 06:34:10;;;;;;;4.53;2.13;;;22.10;55.40;;;;;;5067055;28;20194;-43
2023/06/03 06:36:52;;;;;;;5.83;2.50;;;22.10;56.60;;;;;;5034105;28;20213;-44
2023/06/03 06:39:46;;;;;;;5.23;2.40;;;22.10;57.90;;;;;;5059403;28;20229;-43
2023/06/03 06:42:33;;;;;;;3.03;1.90;;;22.00;57.70;;;;;;5048245;28;20206;-44
2023/06/03 06:45:27;;;;;;;5.17;2.13;;;22.00;58.10;;;;;;5037514;28;20220;-44
2023/06/03 06:48:09;;;;;;;4.33;1.70;;;22.00;58.90;;;;;;5046924;28;20600;-44
2023/06/03 06:50:56;;;;;;;2.73;2.10;;;22.10;59.40;;;;;;5023530;28;20989;-45
2023/06/03 06:53:31;;;;;;;3.33;2.00;;;22.00;59.60;;;;;;5038632;28;20222;-45
2023/06/03 06:56:09;;;;;;;2.90;1.87;;;22.00;59.80;;;;;;5050204;28;20612;-45
2023/06/03 06:58:40;;;;;;;4.53;2.30;;;22.00;59.70;;;;;;5043453;28;20214;-45
2023/06/03 07:01:12;;;;;;;5.77;3.00;;;22.00;59.70;;;;;;5016484;28;20194;-44
2023/06/03 07:03:42;;;;;;;11.00;3.77;;;22.00;59.90;;;;;;5048698;28;20194;-44
2023/06/03 07:06:13;;;;;;;7.17;2.90;;;22.00;60.30;;;;;;5049005;28;20202;-45
2023/06/03 07:08:42;;;;;;;8.60;3.43;;;22.00;60.20;;;;;;5039241;28;20229;-45
2023/06/03 07:11:14;;;;;;;7.17;3.80;;;22.10;61.40;;;;;;5030282;28;20194;-43
2023/06/03 07:13:46;;;;;;;10.63;3.33;;;22.10;61.20;;;;;;5026048;28;20202;-45
2023/06/03 07:16:16;;;;;;;10.50;4.10;;;22.00;61.20;;;;;;5041383;28;20194;-44
2023/06/03 07:18:53;;;;;;;7.40;3.20;;;22.10;61.20;;;;;;5047170;28;20241;-44
2023/06/03 07:21:25;;;;;;;7.57;3.27;;;22.00;60.80;;;;;;5024990;28;20541;-43
2023/06/03 07:23:57;;;;;;;4.87;3.10;;;22.10;61.10;;;;;;5049223;28;20206;-44
2023/06/03 07:26:31;;;;;;;5.77;3.13;;;22.10;61.00;;;;;;5029695;28;20776;-43
2023/06/03 07:29:04;;;;;;;8.77;2.97;;;22.00;60.80;;;;;;5051248;28;20809;-44
2023/06/03 07:31:35;;;;;;;6.97;3.27;;;22.00;61.20;;;;;;5048517;28;20201;-43
2023/06/03 07:34:11;;;;;;;6.67;2.90;;;22.10;61.50;;;;;;5041734;28;20206;-44
2023/06/03 07:36:41;;;;;;;8.47;3.10;;;22.10;60.90;;;;;;5042836;28;20197;-44
2023/06/03 07:39:27;;;;;;;5.77;2.87;;;22.00;61.30;;;;;;5049162;28;20194;-44
2023/06/03 07:41:57;;;;;;;4.43;2.27;;;22.00;61.10;;;;;;5063318;28;20201;-43
2023/06/03 07:44:44;;;;;;;3.63;2.27;;;22.00;61.30;;;;;;5062453;28;20229;-43
2023/06/03 07:47:17;;;;;;;4.07;2.40;;;22.00;60.90;;;;;;5069206;28;20215;-43
2023/06/03 07:49:49;;;;;;;4.47;2.10;;;22.00;61.10;;;;;;5039974;28;20661;-43
2023/06/03 07:52:24;;;;;;;4.20;2.27;;;22.00;61.00;;;;;;5037800;28;20232;-44
2023/06/03 07:54:52;;;;;;;3.47;2.17;;;22.10;60.60;;;;;;5050326;28;20195;-43
2023/06/03 07:57:22;;;;;;;2.73;2.23;;;22.00;60.80;;;;;;5052377;28;20682;-44
2023/06/03 07:59:55;;;;;;;4.20;2.20;;;22.10;61.00;;;;;;5056957;28;20238;-43
2023/06/03 08:02:35;;;;;;;4.30;2.20;;;22.10;60.70;;;;;;5051708;28;20194;-44
2023/06/03 08:05:06;;;;;;;3.10;2.10;;;22.10;60.80;;;;;;5068664;28;20193;-44
2023/06/03 08:07:40;;;;;;;3.97;2.20;;;22.10;60.50;;;;;;5063881;28;20194;-44
2023/06/03 08:10:20;;;;;;;4.40;2.00;;;22.10;60.60;;;;;;5054170;28;20210;-44
2023/06/03 08:12:57;;;;;;;3.93;2.43;;;22.10;60.60;;;;;;5053580;28;20216;-44
2023/06/03 08:15:33;;;;;;;4.80;2.30;;;22.10;60.10;;;;;;5054170;28;20246;-44
2023/06/03 08:18:12;;;;;;;2.80;1.70;;;22.10;60.40;;;;;;5062978;28;20198;-43
2023/06/03 08:20:44;;;;;;;3.10;2.10;;;22.10;60.10;;;;;;5068779;28;20343;-44
2023/06/03 08:23:16;;;;;;;3.10;1.60;;;22.10;59.90;;;;;;5068561;28;20205;-44
2023/06/03 08:25:46;;;;;;;2.70;1.73;;;22.10;60.00;;;;;;5053045;28;20210;-44
2023/06/03 08:28:16;;;;;;;3.63;1.63;;;22.10;59.90;;;;;;5072557;28;20193;-44
2023/06/03 08:30:45;;;;;;;3.73;1.83;;;22.10;59.80;;;;;;5066068;28;20783;-43
2023/06/03 08:33:16;;;;;;;2.70;1.60;;;22.10;59.50;;;;;;5048801;28;20235;-42
2023/06/03 08:35:50;;;;;;;2.97;1.50;;;22.10;59.60;;;;;;5052724;28;20197;-43
2023/06/03 08:38:20;;;;;;;1.87;1.60;;;22.10;59.30;;;;;;5075868;28;20200;-43
2023/06/03 08:40:52;;;;;;;1.97;1.53;;;22.10;59.40;;;;;;5059702;28;20751;-44
2023/06/03 08:43:42;;;;;;;3.97;1.80;;;22.20;59.20;;;;;;5053269;28;20198;-44
2023/06/03 08:46:38;;;;;;;3.43;1.80;;;22.10;58.60;;;;;;5053726;28;20205;-44
2023/06/03 08:49:20;;;;;;;1.97;1.60;;;22.10;58.50;;;;;;5006088;28;20206;-44
2023/06/03 08:51:59;;;;;;;3.43;1.43;;;22.10;58.00;;;;;;5035414;28;20194;-43
2023/06/03 08:54:41;;;;;;;4.23;1.60;;;22.10;57.80;;;;;;5057590;28;20195;-43
2023/06/03 08:57:19;;;;;;;2.60;1.60;;;22.10;57.80;;;;;;5035559;28;20673;-44
2023/06/03 09:00:12;;;;;;;2.17;1.30;;;22.10;57.60;;;;;;5026103;28;20183;-44
2023/06/03 09:02:52;;;;;;;3.27;1.60;;;22.10;57.50;;;;;;5068173;28;20202;-43
2023/06/03 09:05:34;;;;;;;1.40;1.30;;;22.20;57.40;;;;;;5043511;28;20226;-44
2023/06/03 09:08:14;;;;;;;3.63;1.60;;;22.20;57.20;;;;;;5004249;28;20205;-43
2023/06/03 09:10:48;;;;;;;3.10;1.37;;;22.20;57.00;;;;;;5033379;28;20310;-43
2023/06/03 09:13:21;;;;;;;1.67;1.27;;;22.20;56.60;;;;;;5042843;28;20410;-43
2023/06/03 09:15:53;;;;;;;4.63;1.73;;;22.10;56.50;;;;;;5053271;28;20187;-43
2023/06/03 09:18:21;;;;;;;2.67;1.40;;;22.20;56.60;;;;;;5052128;28;20212;-43
2023/06/03 09:20:52;;;;;;;2.07;1.50;;;22.10;56.40;;;;;;5066248;28;20218;-43
2023/06/03 09:23:26;;;;;;;2.30;1.27;;;22.20;56.40;;;;;;5062589;28;20206;-42
2023/06/03 09:25:53;;;;;;;1.77;1.30;;;22.20;56.40;;;;;;5055115;28;20193;-44
2023/06/03 09:28:22;;;;;;;1.90;1.30;;;22.10;56.10;;;;;;5036853;28;20537;-43
2023/06/03 09:30:50;;;;;;;2.10;1.30;;;22.20;56.10;;;;;;5066454;28;20189;-44
2023/06/03 09:33:22;;;;;;;2.27;1.23;;;22.20;56.10;;;;;;5057017;28;20234;-43
2023/06/03 09:36:12;;;;;;;4.03;1.20;;;22.20;55.50;;;;;;5068368;28;20281;-43
2023/06/03 09:38:55;;;;;;;2.50;1.20;;;22.20;55.30;;;;;;5064250;28;20202;-44
2023/06/03 09:41:26;;;;;;;3.90;1.40;;;22.20;55.30;;;;;;5057014;28;20229;-43
2023/06/03 09:44:06;;;;;;;1.87;1.20;;;22.20;55.10;;;;;;5069813;28;20564;-44
2023/06/03 09:46:38;;;;;;;3.00;1.20;;;22.20;54.90;;;;;;5065489;28;20639;-43
2023/06/03 09:49:17;;;;;;;1.43;1.13;;;22.20;54.90;;;;;;5061630;28;20197;-43
2023/06/03 09:52:11;;;;;;;3.77;1.30;;;22.20;54.70;;;;;;5055067;28;20266;-44
2023/06/03 09:55:07;;;;;;;1.97;1.30;;;22.20;54.30;;;;;;5058814;28;20287;-44
2023/06/03 09:57:39;;;;;;;1.83;1.07;;;22.30;54.10;;;;;;5048786;28;20210;-43
2023/06/03 10:00:12;;;;;;;1.60;1.30;;;22.30;53.80;;;;;;5029905;28;20198;-44
2023/06/03 10:02:44;;;;;;;1.13;1.00;;;22.30;54.20;;;;;;5064007;28;20335;-44
2023/06/03 10:05:31;;;;;;;1.40;1.27;;;22.30;54.20;;;;;;5071522;28;20197;-44
2023/06/03 10:08:04;;;;;;;1.10;1.00;;;22.30;53.90;;;;;;5074942;28;20233;-44
2023/06/03 10:10:56;;;;;;;1.10;0.87;;;22.30;53.60;;;;;;5068613;28;20205;-44
2023/06/03 10:13:25;;;;;;;1.50;1.00;;;22.30;53.80;;;;;;5070208;28;20581;-44
2023/06/03 10:16:01;;;;;;;1.77;1.00;;;22.30;53.60;;;;;;5070132;28;20190;-44
2023/06/03 10:18:41;;;;;;;1.13;1.00;;;22.30;53.30;;;;;;5066906;28;20197;-43
2023/06/03 10:21:36;;;;;;;1.80;1.40;;;22.30;53.10;;;;;;5068106;28;20619;-43
2023/06/03 10:24:11;;;;;;;2.60;1.20;;;22.30;52.90;;;;;;5049797;28;20190;-43
2023/06/03 10:26:45;;;;;;;1.63;1.00;;;22.40;52.80;;;;;;5050356;28;20657;-43
2023/06/03 10:29:17;;;;;;;2.23;1.20;;;22.40;52.90;;;;;;5058555;28;20221;-43
2023/06/03 10:31:53;;;;;;;1.67;0.80;;;22.40;53.30;;;;;;5069882;28;20197;-43
2023/06/03 10:34:23;;;;;;;1.27;1.10;;;22.40;53.30;;;;;;5039403;28;20240;-43
2023/06/03 10:37:01;;;;;;;1.20;1.10;;;22.40;53.40;;;;;;5070045;28;20670;-43
2023/06/03 10:39:49;;;;;;;1.23;1.00;;;22.40;53.50;;;;;;5062885;28;20205;-44
2023/06/03 10:42:19;;;;;;;0.93;0.87;;;22.40;53.80;;;;;;5049644;28;20623;-44
2023/06/03 10:44:50;;;;;;;1.77;1.00;;;22.40;53.80;;;;;;5047742;28;20222;-44
2023/06/03 10:47:30;;;;;;;1.20;1.10;;;22.50;53.80;;;;;;5050493;28;20623;-43
2023/06/03 10:50:27;;;;;;;1.70;1.10;;;22.50;53.20;;;;;;5059766;28;20251;-44
2023/06/03 10:53:46;;;;;;;2.10;1.10;;;22.50;53.20;;;;;;5075501;28;20229;-47
2023/06/03 10:56:55;;;;;;;1.17;1.00;;;22.50;53.30;;;;;;4987954;28;20216;-44
2023/06/03 10:59:45;;;;;;;1.90;1.30;;;22.50;53.30;;;;;;4955749;28;20193;-44
2023/06/03 11:02:16;;;;;;;2.27;1.10;;;22.60;53.20;;;;;;5001712;28;20200;-44
2023/06/03 11:04:44;;;;;;;2.67;1.17;;;22.50;52.60;;;;;;4987508;28;20200;-45
2023/06/03 11:07:34;;;;;;;1.10;1.00;;;22.60;52.10;;;;;;4984417;28;20209;-44
2023/06/03 11:10:36;;;;;;;1.17;0.87;;;22.60;52.90;;;;;;4996862;28;20230;-44
2023/06/03 11:13:47;;;;;;;1.43;1.10;;;22.60;53.10;;;;;;5034354;28;20228;-44
2023/06/03 11:16:16;;;;;;;1.40;0.90;;;22.60;52.70;;;;;;5049613;28;20223;-44
2023/06/03 11:18:45;;;;;;;1.27;1.00;;;22.60;53.00;;;;;;5060660;28;20258;-44
2023/06/03 11:21:47;;;;;;;1.93;1.03;;;22.70;52.90;;;;;;5057172;28;20222;-43
2023/06/03 11:24:41;;;;;;;2.33;0.90;;;22.70;53.10;;;;;;5036050;28;20232;-44
2023/06/03 11:27:15;;;;;;;1.50;1.20;;;22.60;52.80;;;;;;5062310;28;20210;-43
2023/06/03 11:29:51;;;;;;;1.33;1.00;;;22.70;52.80;;;;;;5063376;28;20190;-43
2023/06/03 11:32:27;;;;;;;1.63;1.10;;;22.70;52.00;;;;;;5062478;28;20828;-44
2023/06/03 11:35:08;;;;;;;1.80;1.10;;;22.70;52.80;;;;;;5079459;28;20250;-43
2023/06/03 11:37:43;;;;;;;1.53;1.27;;;22.70;52.70;;;;;;5060404;28;20647;-43
2023/06/03 11:40:20;;;;;;;1.80;1.20;;;22.70;51.90;;;;;;5067427;28;20290;-44
2023/06/03 11:43:00;;;;;;;1.10;1.00;;;22.70;53.00;;;;;;5067898;28;20619;-44
2023/06/03 11:45:37;;;;;;;1.90;1.17;;;22.80;53.00;;;;;;5057055;28;20222;-44
2023/06/03 11:48:10;;;;;;;3.53;1.17;;;22.70;52.60;;;;;;5064094;28;20217;-44
2023/06/03 11:50:54;;;;;;;2.57;1.20;;;22.80;53.00;;;;;;5064714;28;20266;-44
2023/06/03 11:53:38;;;;;;;1.13;1.03;;;22.80;53.10;;;;;;5038004;28;20222;-44
2023/06/03 11:56:13;;;;;;;1.57;1.23;;;22.80;53.20;;;;;;5050804;28;20201;-44
2023/06/03 11:58:51;;;;;;;2.13;1.13;;;22.80;53.10;;;;;;5062286;28;20216;-44
2023/06/03 12:01:21;;;;;;;2.30;1.13;;;22.80;53.00;;;;;;5056155;28;20567;-43
2023/06/03 12:04:02;;;;;;;1.63;1.13;;;22.80;52.80;;;;;;5067998;28;20251;-43
2023/06/03 12:06:36;;;;;;;1.70;1.20;;;22.90;52.10;;;;;;5058235;28;20205;-43
2023/06/03 12:09:06;;;;;;;1.27;0.93;;;22.90;52.10;;;;;;5052912;28;20569;-43
2023/06/03 12:11:40;;;;;;;1.00;0.90;;;22.90;52.60;;;;;;5072232;28;20231;-43
2023/06/03 12:14:32;;;;;;;1.03;0.90;;;22.90;52.90;;;;;;5071520;28;20247;-43
2023/06/03 12:17:27;;;;;;;1.30;1.20;;;22.90;52.40;;;;;;5084183;28;20193;-43
2023/06/03 12:20:08;;;;;;;1.60;1.33;;;22.90;52.80;;;;;;5055194;28;20590;-44
2023/06/03 12:22:40;;;;;;;1.57;1.20;;;23.00;52.20;;;;;;5064447;28;20245;-44
2023/06/03 12:25:20;;;;;;;2.07;1.30;;;23.00;51.40;;;;;;5071366;28;20201;-44
2023/06/03 12:27:49;;;;;;;4.33;0.97;;;23.00;52.10;;;;;;5038612;28;20190;-44
2023/06/03 12:30:38;;;;;;;1.30;1.20;;;23.00;52.50;;;;;;5074656;28;20193;-44
2023/06/03 12:33:08;;;;;;;1.53;1.20;;;23.00;52.30;;;;;;5068368;28;20245;-44
2023/06/03 12:35:55;;;;;;;1.60;1.27;;;23.00;52.80;;;;;;5070340;28;20194;-44
2023/06/03 12:38:24;;;;;;;1.20;1.10;;;23.00;52.70;;;;;;5068212;28;20220;-43
2023/06/03 12:41:10;;;;;;;2.40;1.20;;;23.00;52.20;;;;;;5071272;28;20241;-44
2023/06/03 12:43:42;;;;;;;2.43;1.40;;;23.10;52.30;;;;;;5051968;28;20190;-44
2023/06/03 12:46:18;;;;;;;1.00;0.90;;;23.10;52.80;;;;;;5050964;28;20217;-43
2023/06/03 12:48:56;;;;;;;2.10;1.17;;;23.10;52.60;;;;;;5070983;28;20194;-43
2023/06/03 12:51:32;;;;;;;1.73;1.10;;;23.10;51.50;;;;;;5063763;28;20198;-44
2023/06/03 12:54:04;;;;;;;1.07;0.93;;;23.20;50.60;;;;;;5057895;28;20236;-44
2023/06/03 12:56:36;;;;;;;1.90;1.03;;;23.10;51.50;;;;;;5055961;28;20244;-43
2023/06/03 12:59:07;;;;;;;1.60;1.17;;;23.20;52.10;;;;;;5057558;28;20236;-43
2023/06/03 13:01:35;;;;;;;1.87;1.20;;;23.20;52.20;;;;;;5070850;28;20204;-43
2023/06/03 13:04:02;;;;;;;1.20;1.10;;;23.20;51.90;;;;;;5072559;28;20267;-43
2023/06/03 13:06:32;;;;;;;2.93;1.07;;;23.20;51.80;;;;;;5069380;28;20509;-43
2023/06/03 13:09:03;;;;;;;1.10;1.00;;;23.30;51.90;;;;;;5066440;28;20224;-44
2023/06/03 13:11:35;;;;;;;1.33;1.10;;;23.30;51.50;;;;;;5063693;28;20518;-44
2023/06/03 13:14:07;;;;;;;1.20;1.10;;;23.30;50.70;;;;;;5053293;28;20206;-44
2023/06/03 13:16:36;;;;;;;3.20;1.37;;;23.30;51.70;;;;;;5066435;28;20526;-44
2023/06/03 13:19:10;;;;;;;1.30;1.20;;;23.30;51.10;;;;;;5062414;28;20205;-44
2023/06/03 13:21:37;;;;;;;1.40;1.10;;;23.40;51.80;;;;;;5058832;28;20214;-44
2023/06/03 13:24:09;;;;;;;2.40;1.00;;;23.40;51.40;;;;;;5064676;28;20693;-43
2023/06/03 13:26:37;;;;;;;1.83;0.90;;;23.40;51.10;;;;;;5059331;28;20210;-44